createdAt,value
2023-05-18T17:52:29.077Z,50.32
2023-05-18T17:53:29.005Z,50.78
2023-05-18T17:54:28.970Z,50.99
2023-05-18T17:55:28.952Z,51.84
2023-05-18T17:56:28.885Z,51.55
2023-05-18T17:57:28.839Z,51.07
2023-05-18T17:58:28.800Z,51.45
2023-05-18T17:59:28.765Z,52.00
2023-05-18T18:00:28.736Z,52.87
2023-05-18T18:01:28.783Z,52.68
2023-05-18T18:02:28.669Z,52.00
2023-05-18T18:03:28.669Z,52.10
2023-05-18T18:04:28.551Z,52.17
2023-05-18T18:05:28.501Z,52.84
2023-05-18T18:06:28.476Z,53.61
2023-05-18T18:07:28.419Z,53.80
2023-05-18T18:08:28.482Z,53.42
2023-05-18T18:09:28.339Z,53.58
2023-05-18T18:10:28.329Z,54.25
2023-05-18T18:11:28.257Z,54.45
2023-05-18T18:12:28.215Z,53.87
2023-05-18T18:45:09.521Z,59.80
2023-05-18T18:46:52.856Z,59.33
2023-05-18T19:31:26.816Z,65.94
2023-05-18T19:32:26.762Z,66.22
2023-05-18T19:33:26.711Z,65.84
2023-05-18T19:34:26.654Z,66.13
2023-05-18T19:35:26.610Z,66.09
2023-05-18T19:36:26.563Z,66.32
2023-05-18T19:37:26.519Z,66.19
2023-05-18T19:38:26.477Z,66.67
2023-05-18T19:39:26.432Z,67.43
2023-05-18T19:40:26.389Z,67.82
2023-05-18T19:41:26.345Z,67.34
2023-05-18T19:42:26.313Z,66.76
2023-05-18T19:43:26.252Z,67.24
2023-05-18T19:44:26.208Z,67.05
2023-05-18T19:45:26.224Z,68.10
2023-05-18T19:46:26.160Z,68.68
2023-05-18T19:47:26.130Z,68.77
2023-05-18T19:48:26.032Z,69.35
2023-05-18T19:49:25.990Z,68.77
2023-05-18T19:50:25.938Z,68.20
2023-05-18T19:51:25.908Z,68.10
2023-05-18T19:52:25.856Z,68.01
2023-05-18T19:53:25.812Z,68.74
2023-05-18T19:57:04.958Z,68.64
2023-05-18T19:58:04.893Z,69.79
2023-05-18T19:59:04.856Z,69.02
2023-05-18T20:00:04.821Z,69.79
2023-05-18T20:01:04.810Z,69.98
2023-05-18T20:02:04.744Z,70.56
2023-05-18T20:03:04.732Z,70.75
2023-05-18T20:04:04.677Z,69.50
2023-05-18T20:05:04.586Z,69.89
2023-05-18T20:06:04.542Z,69.31
2023-05-18T20:07:04.511Z,70.07
2023-05-18T20:08:04.456Z,71.32
2023-05-18T20:09:04.414Z,71.22
2023-05-18T20:10:04.367Z,70.17
2023-05-18T20:11:04.357Z,70.65
2023-05-18T20:12:04.284Z,70.46
2023-05-18T20:13:04.250Z,69.98
2023-05-18T20:14:04.197Z,70.84
2023-05-18T20:15:04.162Z,71.13
2023-05-18T20:16:04.162Z,71.32
2023-05-18T20:17:04.175Z,71.42
2023-05-18T20:18:06.631Z,71.89
2023-05-18T20:19:04.032Z,71.13
2023-05-18T20:20:03.935Z,70.65
2023-05-18T20:21:04.100Z,71.32
2023-05-18T20:22:03.854Z,71.95
2023-05-18T20:23:03.819Z,71.95
2023-05-18T20:24:03.765Z,70.81
2023-05-18T20:25:03.728Z,70.81
2023-05-18T20:26:03.678Z,71.00
2023-05-18T20:46:01.877Z,72.14
2023-05-18T20:47:01.762Z,73.10
2023-05-18T20:48:01.749Z,72.58
2023-05-18T20:49:01.672Z,72.30
2023-05-18T20:50:01.650Z,72.39
2023-05-18T20:51:01.597Z,72.11
2023-05-18T20:52:01.543Z,72.68
2023-05-18T20:53:01.524Z,72.39
2023-05-18T20:57:41.480Z,72.68
2023-05-18T21:03:26.426Z,73.54
2023-05-18T21:09:00.199Z,74.59
